sensor_id;sensor_type;location;lat;lon;timestamp;P1;durP1;ratioP1;P2;durP2;ratioP2
22046;SDS011;11187;49.412;20.956;2022-09-30T00:00:37;24.63;;;22.73;;
22046;SDS011;11187;49.412;20.956;2022-09-30T00:03:31;25.60;;;23.38;;
22046;SDS011;11187;49.412;20.956;2022-09-30T00:06:05;25.17;;;22.98;;
22046;SDS011;11187;49.412;20.956;2022-09-30T00:08:53;22.33;;;20.45;;
22046;SDS011;11187;49.412;20.956;2022-09-30T00:11:28;23.15;;;21.23;;
22046;SDS011;11187;49.412;20.956;2022-09-30T00:14:21;24.85;;;22.75;;
22046;SDS011;11187;49.412;20.956;2022-09-30T00:17:02;26.10;;;24.02;;
22046;SDS011;11187;49.412;20.956;2022-09-30T00:19:42;24.02;;;21.92;;
22046;SDS011;11187;49.412;20.956;2022-09-30T00:22:22;24.30;;;22.30;;
22046;SDS011;11187;49.412;20.956;2022-09-30T00:25:03;24.48;;;22.25;;
22046;SDS011;11187;49.412;20.956;2022-09-30T00:27:43;23.80;;;21.35;;
22046;SDS011;11187;49.412;20.956;2022-09-30T00:30:23;22.73;;;20.70;;
22046;SDS011;11187;49.412;20.956;2022-09-30T00:33:03;22.30;;;20.33;;
22046;SDS011;11187;49.412;20.956;2022-09-30T00:35:43;25.80;;;23.30;;
22046;SDS011;11187;49.412;20.956;2022-09-30T00:38:23;23.30;;;21.50;;
22046;SDS011;11187;49.412;20.956;2022-09-30T00:40:56;23.08;;;21.17;;
22046;SDS011;11187;49.412;20.956;2022-09-30T00:43:45;22.48;;;20.63;;
22046;SDS011;11187;49.412;20.956;2022-09-30T00:46:29;21.75;;;19.88;;
22046;SDS011;11187;49.412;20.956;2022-09-30T00:49:24;22.65;;;20.77;;
22046;SDS011;11187;49.412;20.956;2022-09-30T00:52:18;23.05;;;21.00;;
22046;SDS011;11187;49.412;20.956;2022-09-30T00:54:52;23.75;;;21.95;;
22046;SDS011;11187;49.412;20.956;2022-09-30T00:57:47;24.40;;;22.15;;
22046;SDS011;11187;49.412;20.956;2022-09-30T01:00:20;23.92;;;22.02;;
22046;SDS011;11187;49.412;20.956;2022-09-30T01:03:07;22.10;;;20.35;;
22046;SDS011;11187;49.412;20.956;2022-09-30T01:05:40;23.17;;;21.40;;
22046;SDS011;11187;49.412;20.956;2022-09-30T01:08:29;22.98;;;20.98;;
22046;SDS011;11187;49.412;20.956;2022-09-30T01:11:07;23.50;;;21.48;;
22046;SDS011;11187;49.412;20.956;2022-09-30T01:13:55;23.35;;;21.35;;
22046;SDS011;11187;49.412;20.956;2022-09-30T01:24:00;23.73;;;21.73;;
22046;SDS011;11187;49.412;20.956;2022-09-30T01:33:22;22.60;;;20.60;;
22046;SDS011;11187;49.412;20.956;2022-09-30T01:42:30;22.80;;;20.80;;
22046;SDS011;11187;49.412;20.956;2022-09-30T01:52:21;24.33;;;21.55;;
22046;SDS011;11187;49.412;20.956;2022-09-30T02:01:41;22.52;;;20.30;;
22046;SDS011;11187;49.412;20.956;2022-09-30T02:04:41;25.77;;;23.58;;
22046;SDS011;11187;49.412;20.956;2022-09-30T02:07:40;26.10;;;23.83;;
22046;SDS011;11187;49.412;20.956;2022-09-30T02:10:53;23.50;;;20.98;;
22046;SDS011;11187;49.412;20.956;2022-09-30T02:22:47;24.33;;;22.33;;
22046;SDS011;11187;49.412;20.956;2022-09-30T02:25:25;24.17;;;22.20;;
22046;SDS011;11187;49.412;20.956;2022-09-30T02:28:26;27.50;;;24.73;;
22046;SDS011;11187;49.412;20.956;2022-09-30T02:31:21;26.63;;;24.20;;
22046;SDS011;11187;49.412;20.956;2022-09-30T02:34:30;24.98;;;22.77;;
22046;SDS011;11187;49.412;20.956;2022-09-30T02:37:36;26.52;;;23.92;;
22046;SDS011;11187;49.412;20.956;2022-09-30T02:43:11;23.95;;;21.85;;
22046;SDS011;11187;49.412;20.956;2022-09-30T02:49:26;25.40;;;23.30;;
22046;SDS011;11187;49.412;20.956;2022-09-30T02:55:39;22.83;;;20.58;;
22046;SDS011;11187;49.412;20.956;2022-09-30T02:58:31;25.08;;;22.88;;
22046;SDS011;11187;49.412;20.956;2022-09-30T03:01:09;25.42;;;23.33;;
22046;SDS011;11187;49.412;20.956;2022-09-30T03:03:59;23.85;;;21.45;;
22046;SDS011;11187;49.412;20.956;2022-09-30T03:06:37;22.95;;;20.98;;
22046;SDS011;11187;49.412;20.956;2022-09-30T03:09:33;25.13;;;22.65;;
22046;SDS011;11187;49.412;20.956;2022-09-30T03:27:43;24.67;;;22.48;;
22046;SDS011;11187;49.412;20.956;2022-09-30T03:31:02;22.15;;;20.25;;
22046;SDS011;11187;49.412;20.956;2022-09-30T03:37:20;22.92;;;21.00;;
22046;SDS011;11187;49.412;20.956;2022-09-30T03:43:26;23.33;;;21.42;;
22046;SDS011;11187;49.412;20.956;2022-09-30T03:49:46;23.05;;;21.15;;
22046;SDS011;11187;49.412;20.956;2022-09-30T03:52:45;20.35;;;18.75;;
22046;SDS011;11187;49.412;20.956;2022-09-30T03:55:47;22.90;;;20.80;;
22046;SDS011;11187;49.412;20.956;2022-09-30T03:58:22;22.42;;;20.52;;
22046;SDS011;11187;49.412;20.956;2022-09-30T04:01:02;23.20;;;21.30;;
22046;SDS011;11187;49.412;20.956;2022-09-30T04:03:42;23.48;;;21.33;;
22046;SDS011;11187;49.412;20.956;2022-09-30T04:06:23;20.02;;;18.08;;
22046;SDS011;11187;49.412;20.956;2022-09-30T04:09:04;23.10;;;20.80;;
22046;SDS011;11187;49.412;20.956;2022-09-30T04:11:38;21.17;;;19.13;;
22046;SDS011;11187;49.412;20.956;2022-09-30T04:14:24;21.15;;;19.45;;
22046;SDS011;11187;49.412;20.956;2022-09-30T04:16:57;21.77;;;19.88;;
22046;SDS011;11187;49.412;20.956;2022-09-30T04:19:51;21.05;;;19.25;;
22046;SDS011;11187;49.412;20.956;2022-09-30T04:22:45;22.25;;;20.35;;
22046;SDS011;11187;49.412;20.956;2022-09-30T04:25:39;22.35;;;20.58;;
22046;SDS011;11187;49.412;20.956;2022-09-30T04:28:12;21.60;;;19.55;;
22046;SDS011;11187;49.412;20.956;2022-09-30T04:31:00;22.45;;;20.65;;
22046;SDS011;11187;49.412;20.956;2022-09-30T04:33:34;23.20;;;21.20;;
22046;SDS011;11187;49.412;20.956;2022-09-30T04:36:20;23.02;;;21.15;;
22046;SDS011;11187;49.412;20.956;2022-09-30T04:38:53;20.02;;;18.10;;
22046;SDS011;11187;49.412;20.956;2022-09-30T04:41:40;20.67;;;18.98;;
22046;SDS011;11187;49.412;20.956;2022-09-30T04:44:13;22.15;;;20.35;;
22046;SDS011;11187;49.412;20.956;2022-09-30T04:47:07;22.98;;;20.90;;
22046;SDS011;11187;49.412;20.956;2022-09-30T04:49:40;25.13;;;23.20;;
22046;SDS011;11187;49.412;20.956;2022-09-30T04:52:27;27.15;;;25.15;;
22046;SDS011;11187;49.412;20.956;2022-09-30T04:55:00;21.25;;;19.60;;
22046;SDS011;11187;49.412;20.956;2022-09-30T04:57:48;20.38;;;18.50;;
22046;SDS011;11187;49.412;20.956;2022-09-30T05:00:21;19.90;;;18.40;;
22046;SDS011;11187;49.412;20.956;2022-09-30T05:03:15;22.40;;;20.25;;
22046;SDS011;11187;49.412;20.956;2022-09-30T05:05:48;20.02;;;18.20;;
22046;SDS011;11187;49.412;20.956;2022-09-30T05:08:35;18.00;;;16.38;;
22046;SDS011;11187;49.412;20.956;2022-09-30T05:11:16;20.15;;;18.38;;
22046;SDS011;11187;49.412;20.956;2022-09-30T05:14:11;17.98;;;16.67;;
22046;SDS011;11187;49.412;20.956;2022-09-30T05:17:05;18.38;;;16.88;;
22046;SDS011;11187;49.412;20.956;2022-09-30T05:19:39;19.77;;;18.20;;
22046;SDS011;11187;49.412;20.956;2022-09-30T05:22:32;17.00;;;15.68;;
22046;SDS011;11187;49.412;20.956;2022-09-30T05:25:06;17.67;;;16.38;;
22046;SDS011;11187;49.412;20.956;2022-09-30T05:28:00;20.13;;;18.77;;
22046;SDS011;11187;49.412;20.956;2022-09-30T05:30:55;20.52;;;18.73;;
22046;SDS011;11187;49.412;20.956;2022-09-30T05:33:33;19.35;;;17.95;;
22046;SDS011;11187;49.412;20.956;2022-09-30T05:36:20;20.30;;;18.83;;
22046;SDS011;11187;49.412;20.956;2022-09-30T05:38:54;18.00;;;16.48;;
22046;SDS011;11187;49.412;20.956;2022-09-30T05:41:40;19.17;;;17.58;;
22046;SDS011;11187;49.412;20.956;2022-09-30T05:44:13;20.08;;;18.58;;
22046;SDS011;11187;49.412;20.956;2022-09-30T05:47:00;20.05;;;18.35;;
22046;SDS011;11187;49.412;20.956;2022-09-30T05:49:34;20.55;;;18.92;;
22046;SDS011;11187;49.412;20.956;2022-09-30T05:52:20;19.58;;;17.85;;
22046;SDS011;11187;49.412;20.956;2022-09-30T05:54:54;18.10;;;16.60;;
22046;SDS011;11187;49.412;20.956;2022-09-30T05:57:40;19.17;;;17.73;;
22046;SDS011;11187;49.412;20.956;2022-09-30T06:00:19;19.42;;;17.83;;
22046;SDS011;11187;49.412;20.956;2022-09-30T06:03:06;19.25;;;17.85;;
22046;SDS011;11187;49.412;20.956;2022-09-30T06:05:40;21.08;;;19.13;;
22046;SDS011;11187;49.412;20.956;2022-09-30T06:08:26;19.42;;;17.92;;
22046;SDS011;11187;49.412;20.956;2022-09-30T06:11:00;18.08;;;16.58;;
22046;SDS011;11187;49.412;20.956;2022-09-30T06:13:56;19.05;;;17.20;;
22046;SDS011;11187;49.412;20.956;2022-09-30T06:16:50;21.42;;;19.65;;
22046;SDS011;11187;49.412;20.956;2022-09-30T06:19:23;20.25;;;18.55;;
22046;SDS011;11187;49.412;20.956;2022-09-30T06:22:17;21.80;;;20.10;;
22046;SDS011;11187;49.412;20.956;2022-09-30T06:25:11;18.55;;;17.00;;
22046;SDS011;11187;49.412;20.956;2022-09-30T06:27:45;19.90;;;18.02;;
22046;SDS011;11187;49.412;20.956;2022-09-30T06:30:32;18.00;;;16.60;;
22046;SDS011;11187;49.412;20.956;2022-09-30T06:33:06;17.55;;;16.17;;
22046;SDS011;11187;49.412;20.956;2022-09-30T06:35:52;20.98;;;19.38;;
22046;SDS011;11187;49.412;20.956;2022-09-30T06:38:25;21.25;;;19.67;;
22046;SDS011;11187;49.412;20.956;2022-09-30T06:41:16;18.40;;;17.08;;
22046;SDS011;11187;49.412;20.956;2022-09-30T06:43:49;17.58;;;16.27;;
22046;SDS011;11187;49.412;20.956;2022-09-30T06:46:48;16.30;;;15.10;;
22046;SDS011;11187;49.412;20.956;2022-09-30T06:49:22;16.05;;;14.88;;
22046;SDS011;11187;49.412;20.956;2022-09-30T06:52:25;17.80;;;16.58;;
22046;SDS011;11187;49.412;20.956;2022-09-30T06:54:58;18.08;;;16.77;;
22046;SDS011;11187;49.412;20.956;2022-09-30T06:57:45;17.35;;;16.15;;
22046;SDS011;11187;49.412;20.956;2022-09-30T07:00:19;16.80;;;15.70;;
22046;SDS011;11187;49.412;20.956;2022-09-30T07:03:08;16.02;;;14.93;;
22046;SDS011;11187;49.412;20.956;2022-09-30T07:05:55;20.77;;;19.23;;
22046;SDS011;11187;49.412;20.956;2022-09-30T07:08:45;19.23;;;18.02;;
22046;SDS011;11187;49.412;20.956;2022-09-30T07:11:18;18.88;;;17.58;;
22046;SDS011;11187;49.412;20.956;2022-09-30T07:14:05;19.27;;;17.98;;
22046;SDS011;11187;49.412;20.956;2022-09-30T07:16:40;22.38;;;20.90;;
22046;SDS011;11187;49.412;20.956;2022-09-30T07:19:26;19.10;;;17.50;;
22046;SDS011;11187;49.412;20.956;2022-09-30T07:22:00;19.52;;;18.05;;
22046;SDS011;11187;49.412;20.956;2022-09-30T07:25:05;21.10;;;19.73;;
22046;SDS011;11187;49.412;20.956;2022-09-30T07:27:39;18.00;;;16.80;;
22046;SDS011;11187;49.412;20.956;2022-09-30T07:30:25;18.40;;;17.10;;
22046;SDS011;11187;49.412;20.956;2022-09-30T07:32:59;22.23;;;20.70;;
22046;SDS011;11187;49.412;20.956;2022-09-30T07:35:53;19.63;;;18.33;;
22046;SDS011;11187;49.412;20.956;2022-09-30T07:38:30;20.45;;;19.02;;
22046;SDS011;11187;49.412;20.956;2022-09-30T07:41:18;21.65;;;20.25;;
22046;SDS011;11187;49.412;20.956;2022-09-30T07:43:56;21.05;;;19.45;;
22046;SDS011;11187;49.412;20.956;2022-09-30T07:46:45;19.15;;;17.80;;
22046;SDS011;11187;49.412;20.956;2022-09-30T07:49:19;20.73;;;19.30;;
22046;SDS011;11187;49.412;20.956;2022-09-30T07:52:07;20.92;;;19.50;;
22046;SDS011;11187;49.412;20.956;2022-09-30T07:54:42;20.25;;;18.75;;
22046;SDS011;11187;49.412;20.956;2022-09-30T07:57:29;19.88;;;18.48;;
22046;SDS011;11187;49.412;20.956;2022-09-30T08:00:03;20.90;;;19.50;;
22046;SDS011;11187;49.412;20.956;2022-09-30T08:03:02;20.88;;;19.48;;
22046;SDS011;11187;49.412;20.956;2022-09-30T08:05:42;23.05;;;21.45;;
22046;SDS011;11187;49.412;20.956;2022-09-30T08:08:22;21.65;;;20.10;;
22046;SDS011;11187;49.412;20.956;2022-09-30T08:11:03;21.45;;;19.90;;
22046;SDS011;11187;49.412;20.956;2022-09-30T08:13:43;19.25;;;17.92;;
22046;SDS011;11187;49.412;20.956;2022-09-30T08:16:27;19.10;;;17.63;;
22046;SDS011;11187;49.412;20.956;2022-09-30T08:19:08;22.08;;;20.67;;
22046;SDS011;11187;49.412;20.956;2022-09-30T08:21:52;23.05;;;21.42;;
22046;SDS011;11187;49.412;20.956;2022-09-30T08:24:32;20.27;;;18.88;;
22046;SDS011;11187;49.412;20.956;2022-09-30T08:27:12;18.92;;;17.63;;
22046;SDS011;11187;49.412;20.956;2022-09-30T08:30:06;18.42;;;17.25;;
22046;SDS011;11187;49.412;20.956;2022-09-30T08:33:01;21.20;;;19.80;;
22046;SDS011;11187;49.412;20.956;2022-09-30T08:35:35;21.65;;;20.25;;
22046;SDS011;11187;49.412;20.956;2022-09-30T08:38:28;22.35;;;20.95;;
22046;SDS011;11187;49.412;20.956;2022-09-30T08:44:41;19.70;;;18.10;;
22046;SDS011;11187;49.412;20.956;2022-09-30T08:50:13;22.45;;;20.75;;
22046;SDS011;11187;49.412;20.956;2022-09-30T08:53:28;22.88;;;21.45;;
22046;SDS011;11187;49.412;20.956;2022-09-30T08:56:06;21.92;;;20.48;;
22046;SDS011;11187;49.412;20.956;2022-09-30T08:59:00;20.75;;;19.45;;
22046;SDS011;11187;49.412;20.956;2022-09-30T09:01:45;18.15;;;17.05;;
22046;SDS011;11187;49.412;20.956;2022-09-30T09:04:34;18.15;;;16.95;;
22046;SDS011;11187;49.412;20.956;2022-09-30T09:10:17;22.67;;;21.27;;
22046;SDS011;11187;49.412;20.956;2022-09-30T09:19:09;20.08;;;18.77;;
22046;SDS011;11187;49.412;20.956;2022-09-30T09:22:07;21.42;;;20.13;;
22046;SDS011;11187;49.412;20.956;2022-09-30T09:24:49;18.73;;;17.65;;
22046;SDS011;11187;49.412;20.956;2022-09-30T09:30:48;17.92;;;16.83;;
22046;SDS011;11187;49.412;20.956;2022-09-30T09:33:28;19.52;;;18.42;;
22046;SDS011;11187;49.412;20.956;2022-09-30T09:37:06;19.58;;;18.38;;
22046;SDS011;11187;49.412;20.956;2022-09-30T09:39:37;22.95;;;20.92;;
22046;SDS011;11187;49.412;20.956;2022-09-30T09:45:36;19.27;;;17.92;;
22046;SDS011;11187;49.412;20.956;2022-09-30T09:48:41;18.05;;;16.95;;
22046;SDS011;11187;49.412;20.956;2022-09-30T09:51:36;18.58;;;17.48;;
22046;SDS011;11187;49.412;20.956;2022-09-30T09:54:36;19.52;;;18.42;;
22046;SDS011;11187;49.412;20.956;2022-09-30T09:57:32;19.90;;;18.60;;
22046;SDS011;11187;49.412;20.956;2022-09-30T10:00:26;20.70;;;19.50;;
22046;SDS011;11187;49.412;20.956;2022-09-30T10:03:31;18.05;;;17.05;;
22046;SDS011;11187;49.412;20.956;2022-09-30T10:06:08;19.42;;;18.33;;
22046;SDS011;11187;49.412;20.956;2022-09-30T10:08:56;21.60;;;20.30;;
22046;SDS011;11187;49.412;20.956;2022-09-30T10:11:30;22.63;;;21.30;;
22046;SDS011;11187;49.412;20.956;2022-09-30T10:14:17;19.65;;;18.45;;
22046;SDS011;11187;49.412;20.956;2022-09-30T10:16:56;19.00;;;17.80;;
22046;SDS011;11187;49.412;20.956;2022-09-30T10:19:51;18.40;;;17.02;;
22046;SDS011;11187;49.412;20.956;2022-09-30T10:22:28;16.90;;;15.65;;
22046;SDS011;11187;49.412;20.956;2022-09-30T10:25:23;20.38;;;19.13;;
22046;SDS011;11187;49.412;20.956;2022-09-30T10:28:19;19.67;;;18.35;;
22046;SDS011;11187;49.412;20.956;2022-09-30T10:31:06;17.70;;;16.50;;
22046;SDS011;11187;49.412;20.956;2022-09-30T10:37:16;20.85;;;19.60;;
22046;SDS011;11187;49.412;20.956;2022-09-30T10:39:56;19.27;;;18.08;;
22046;SDS011;11187;49.412;20.956;2022-09-30T10:42:47;17.92;;;16.80;;
22046;SDS011;11187;49.412;20.956;2022-09-30T10:45:22;19.38;;;18.25;;
22046;SDS011;11187;49.412;20.956;2022-09-30T10:48:17;18.60;;;17.42;;
22046;SDS011;11187;49.412;20.956;2022-09-30T10:50:54;20.20;;;18.90;;
22046;SDS011;11187;49.412;20.956;2022-09-30T10:53:49;23.05;;;21.25;;
22046;SDS011;11187;49.412;20.956;2022-09-30T10:56:44;20.77;;;19.27;;
22046;SDS011;11187;49.412;20.956;2022-09-30T10:59:24;21.27;;;19.50;;
22046;SDS011;11187;49.412;20.956;2022-09-30T11:08:37;20.00;;;18.70;;
22046;SDS011;11187;49.412;20.956;2022-09-30T11:11:38;22.55;;;21.15;;
22046;SDS011;11187;49.412;20.956;2022-09-30T11:14:37;19.38;;;18.08;;
22046;SDS011;11187;49.412;20.956;2022-09-30T11:17:36;25.55;;;23.98;;
22046;SDS011;11187;49.412;20.956;2022-09-30T11:20:20;22.52;;;21.13;;
22046;SDS011;11187;49.412;20.956;2022-09-30T11:23:23;19.73;;;18.52;;
22046;SDS011;11187;49.412;20.956;2022-09-30T11:34:48;22.08;;;20.77;;
22046;SDS011;11187;49.412;20.956;2022-09-30T11:41:31;20.38;;;19.00;;
22046;SDS011;11187;49.412;20.956;2022-09-30T11:44:36;19.98;;;18.48;;
22046;SDS011;11187;49.412;20.956;2022-09-30T11:50:57;18.55;;;17.20;;
22046;SDS011;11187;49.412;20.956;2022-09-30T11:54:04;21.38;;;20.08;;
22046;SDS011;11187;49.412;20.956;2022-09-30T12:00:15;18.73;;;17.63;;
22046;SDS011;11187;49.412;20.956;2022-09-30T12:03:17;23.25;;;21.85;;
22046;SDS011;11187;49.412;20.956;2022-09-30T12:06:22;21.05;;;19.75;;
22046;SDS011;11187;49.412;20.956;2022-09-30T12:09:02;21.10;;;19.90;;
22046;SDS011;11187;49.412;20.956;2022-09-30T12:12:09;22.42;;;21.00;;
22046;SDS011;11187;49.412;20.956;2022-09-30T12:14:48;20.80;;;19.45;;
22046;SDS011;11187;49.412;20.956;2022-09-30T12:17:38;19.20;;;18.00;;
22046;SDS011;11187;49.412;20.956;2022-09-30T12:20:32;23.02;;;21.42;;
22046;SDS011;11187;49.412;20.956;2022-09-30T12:23:34;21.30;;;19.73;;
22046;SDS011;11187;49.412;20.956;2022-09-30T12:26:34;20.27;;;18.98;;
22046;SDS011;11187;49.412;20.956;2022-09-30T12:32:32;20.83;;;19.63;;
22046;SDS011;11187;49.412;20.956;2022-09-30T12:38:52;22.90;;;21.45;;
22046;SDS011;11187;49.412;20.956;2022-09-30T12:41:35;22.15;;;20.75;;
22046;SDS011;11187;49.412;20.956;2022-09-30T12:45:04;21.27;;;19.92;;
22046;SDS011;11187;49.412;20.956;2022-09-30T12:48:10;23.40;;;21.90;;
22046;SDS011;11187;49.412;20.956;2022-09-30T12:50:49;22.15;;;20.65;;
22046;SDS011;11187;49.412;20.956;2022-09-30T12:53:45;23.70;;;22.00;;
22046;SDS011;11187;49.412;20.956;2022-09-30T12:56:44;23.17;;;21.77;;
22046;SDS011;11187;49.412;20.956;2022-09-30T12:59:24;22.05;;;20.65;;
22046;SDS011;11187;49.412;20.956;2022-09-30T13:02:24;21.50;;;20.10;;
22046;SDS011;11187;49.412;20.956;2022-09-30T13:08:32;23.90;;;22.40;;
22046;SDS011;11187;49.412;20.956;2022-09-30T13:11:35;22.65;;;21.00;;
22046;SDS011;11187;49.412;20.956;2022-09-30T13:14:39;23.25;;;21.65;;
22046;SDS011;11187;49.412;20.956;2022-09-30T13:20:47;22.02;;;20.63;;
22046;SDS011;11187;49.412;20.956;2022-09-30T13:26:36;21.85;;;20.08;;
22046;SDS011;11187;49.412;20.956;2022-09-30T13:32:02;23.98;;;22.48;;
22046;SDS011;11187;49.412;20.956;2022-09-30T13:34:47;22.60;;;21.10;;
22046;SDS011;11187;49.412;20.956;2022-09-30T13:37:39;23.45;;;21.95;;
22046;SDS011;11187;49.412;20.956;2022-09-30T13:40:13;24.83;;;23.02;;
22046;SDS011;11187;49.412;20.956;2022-09-30T13:43:38;22.60;;;21.08;;
22046;SDS011;11187;49.412;20.956;2022-09-30T13:49:03;25.42;;;23.73;;
22046;SDS011;11187;49.412;20.956;2022-09-30T13:51:44;23.05;;;21.50;;
22046;SDS011;11187;49.412;20.956;2022-09-30T13:54:32;22.85;;;21.38;;
22046;SDS011;11187;49.412;20.956;2022-09-30T13:57:20;26.20;;;24.50;;
22046;SDS011;11187;49.412;20.956;2022-09-30T14:00:15;24.10;;;22.27;;
22046;SDS011;11187;49.412;20.956;2022-09-30T14:15:07;22.45;;;21.15;;
22046;SDS011;11187;49.412;20.956;2022-09-30T14:18:16;24.33;;;22.70;;
22046;SDS011;11187;49.412;20.956;2022-09-30T14:24:20;21.70;;;20.27;;
22046;SDS011;11187;49.412;20.956;2022-09-30T14:30:16;22.92;;;21.40;;
22046;SDS011;11187;49.412;20.956;2022-09-30T14:35:47;24.65;;;22.98;;
22046;SDS011;11187;49.412;20.956;2022-09-30T14:38:27;21.67;;;20.38;;
22046;SDS011;11187;49.412;20.956;2022-09-30T14:41:23;21.77;;;20.48;;
22046;SDS011;11187;49.412;20.956;2022-09-30T14:44:19;23.65;;;22.25;;
22046;SDS011;11187;49.412;20.956;2022-09-30T14:47:13;22.50;;;21.20;;
22046;SDS011;11187;49.412;20.956;2022-09-30T14:49:49;23.05;;;20.75;;
22046;SDS011;11187;49.412;20.956;2022-09-30T14:52:37;25.52;;;21.75;;
22046;SDS011;11187;49.412;20.956;2022-09-30T14:55:20;22.48;;;20.58;;
22046;SDS011;11187;49.412;20.956;2022-09-30T14:58:24;22.40;;;21.00;;
22046;SDS011;11187;49.412;20.956;2022-09-30T15:01:03;22.55;;;21.25;;
22046;SDS011;11187;49.412;20.956;2022-09-30T15:03:55;22.67;;;21.20;;
22046;SDS011;11187;49.412;20.956;2022-09-30T15:06:32;22.40;;;20.92;;
22046;SDS011;11187;49.412;20.956;2022-09-30T15:09:33;22.73;;;21.20;;
22046;SDS011;11187;49.412;20.956;2022-09-30T15:12:29;21.67;;;20.27;;
22046;SDS011;11187;49.412;20.956;2022-09-30T15:15:34;21.10;;;19.75;;
22046;SDS011;11187;49.412;20.956;2022-09-30T15:18:31;22.58;;;20.98;;
22046;SDS011;11187;49.412;20.956;2022-09-30T15:21:12;21.50;;;19.88;;
22046;SDS011;11187;49.412;20.956;2022-09-30T15:24:00;21.42;;;20.02;;
22046;SDS011;11187;49.412;20.956;2022-09-30T15:26:34;24.30;;;22.80;;
22046;SDS011;11187;49.412;20.956;2022-09-30T15:29:21;24.83;;;23.25;;
22046;SDS011;11187;49.412;20.956;2022-09-30T15:32:02;24.48;;;22.90;;
22046;SDS011;11187;49.412;20.956;2022-09-30T15:34:51;23.30;;;21.88;;
22046;SDS011;11187;49.412;20.956;2022-09-30T15:37:26;24.70;;;23.20;;
22046;SDS011;11187;49.412;20.956;2022-09-30T15:40:21;23.85;;;21.75;;
22046;SDS011;11187;49.412;20.956;2022-09-30T15:43:33;22.63;;;21.13;;
22046;SDS011;11187;49.412;20.956;2022-09-30T15:46:30;24.35;;;22.70;;
22046;SDS011;11187;49.412;20.956;2022-09-30T15:49:45;22.27;;;20.73;;
22046;SDS011;11187;49.412;20.956;2022-09-30T15:52:40;20.85;;;19.38;;
22046;SDS011;11187;49.412;20.956;2022-09-30T15:55:38;22.20;;;20.67;;
22046;SDS011;11187;49.412;20.956;2022-09-30T16:04:35;23.60;;;22.00;;
22046;SDS011;11187;49.412;20.956;2022-09-30T16:07:12;21.63;;;20.13;;
22046;SDS011;11187;49.412;20.956;2022-09-30T16:10:03;23.65;;;22.15;;
22046;SDS011;11187;49.412;20.956;2022-09-30T16:12:39;21.08;;;19.58;;
22046;SDS011;11187;49.412;20.956;2022-09-30T16:15:29;22.25;;;20.67;;
22046;SDS011;11187;49.412;20.956;2022-09-30T16:18:02;23.08;;;21.38;;
22046;SDS011;11187;49.412;20.956;2022-09-30T16:20:56;23.58;;;21.77;;
22046;SDS011;11187;49.412;20.956;2022-09-30T16:23:37;20.95;;;19.58;;
22046;SDS011;11187;49.412;20.956;2022-09-30T16:26:31;23.40;;;21.67;;
22046;SDS011;11187;49.412;20.956;2022-09-30T16:29:05;24.52;;;22.00;;
22046;SDS011;11187;49.412;20.956;2022-09-30T16:31:59;23.83;;;21.83;;
22046;SDS011;11187;49.412;20.956;2022-09-30T16:34:53;23.10;;;21.05;;
22046;SDS011;11187;49.412;20.956;2022-09-30T16:37:27;26.48;;;23.67;;
22046;SDS011;11187;49.412;20.956;2022-09-30T16:40:15;25.10;;;23.30;;
22046;SDS011;11187;49.412;20.956;2022-09-30T16:42:53;24.42;;;22.15;;
22046;SDS011;11187;49.412;20.956;2022-09-30T16:45:46;24.70;;;22.67;;
22046;SDS011;11187;49.412;20.956;2022-09-30T16:48:40;25.48;;;23.17;;
22046;SDS011;11187;49.412;20.956;2022-09-30T16:51:34;24.58;;;22.23;;
22046;SDS011;11187;49.412;20.956;2022-09-30T16:54:28;23.73;;;21.52;;
22046;SDS011;11187;49.412;20.956;2022-09-30T16:57:02;26.48;;;24.17;;
22046;SDS011;11187;49.412;20.956;2022-09-30T16:59:48;28.15;;;25.55;;
22046;SDS011;11187;49.412;20.956;2022-09-30T17:02:22;26.17;;;24.00;;
22046;SDS011;11187;49.412;20.956;2022-09-30T17:05:15;24.20;;;22.05;;
22046;SDS011;11187;49.412;20.956;2022-09-30T17:08:02;22.38;;;20.67;;
22046;SDS011;11187;49.412;20.956;2022-09-30T17:10:48;23.30;;;21.50;;
22046;SDS011;11187;49.412;20.956;2022-09-30T17:13:23;23.30;;;21.63;;
22046;SDS011;11187;49.412;20.956;2022-09-30T17:16:09;22.95;;;21.25;;
22046;SDS011;11187;49.412;20.956;2022-09-30T17:18:43;25.65;;;23.85;;
22046;SDS011;11187;49.412;20.956;2022-09-30T17:21:29;23.90;;;21.95;;
22046;SDS011;11187;49.412;20.956;2022-09-30T17:24:03;28.00;;;25.48;;
22046;SDS011;11187;49.412;20.956;2022-09-30T17:26:57;25.80;;;23.70;;
22046;SDS011;11187;49.412;20.956;2022-09-30T17:29:50;27.13;;;24.92;;
22046;SDS011;11187;49.412;20.956;2022-09-30T17:32:46;29.48;;;27.08;;
22046;SDS011;11187;49.412;20.956;2022-09-30T17:35:40;28.85;;;26.50;;
22046;SDS011;11187;49.412;20.956;2022-09-30T17:38:35;25.15;;;22.85;;
22046;SDS011;11187;49.412;20.956;2022-09-30T17:41:08;27.20;;;24.85;;
22046;SDS011;11187;49.412;20.956;2022-09-30T17:44:15;26.15;;;23.85;;
22046;SDS011;11187;49.412;20.956;2022-09-30T17:46:49;24.90;;;22.92;;
22046;SDS011;11187;49.412;20.956;2022-09-30T17:49:45;26.98;;;24.70;;
22046;SDS011;11187;49.412;20.956;2022-09-30T17:52:39;23.50;;;21.67;;
22046;SDS011;11187;49.412;20.956;2022-09-30T17:55:33;24.00;;;22.20;;
22046;SDS011;11187;49.412;20.956;2022-09-30T17:58:27;27.38;;;25.02;;
22046;SDS011;11187;49.412;20.956;2022-09-30T18:01:07;27.58;;;25.35;;
22046;SDS011;11187;49.412;20.956;2022-09-30T18:03:58;26.25;;;24.20;;
22046;SDS011;11187;49.412;20.956;2022-09-30T18:06:32;25.55;;;23.52;;
22046;SDS011;11187;49.412;20.956;2022-09-30T18:09:19;24.75;;;22.60;;
22046;SDS011;11187;49.412;20.956;2022-09-30T18:11:52;26.20;;;23.92;;
22046;SDS011;11187;49.412;20.956;2022-09-30T18:14:39;26.13;;;24.05;;
22046;SDS011;11187;49.412;20.956;2022-09-30T18:17:12;26.00;;;23.60;;
22046;SDS011;11187;49.412;20.956;2022-09-30T18:19:59;26.33;;;24.13;;
22046;SDS011;11187;49.412;20.956;2022-09-30T18:22:32;26.58;;;24.23;;
22046;SDS011;11187;49.412;20.956;2022-09-30T18:25:26;26.48;;;24.23;;
22046;SDS011;11187;49.412;20.956;2022-09-30T18:28:20;25.23;;;22.90;;
22046;SDS011;11187;49.412;20.956;2022-09-30T18:30:53;28.38;;;25.85;;
22046;SDS011;11187;49.412;20.956;2022-09-30T18:33:48;29.30;;;26.63;;
22046;SDS011;11187;49.412;20.956;2022-09-30T18:36:22;30.80;;;27.98;;
22046;SDS011;11187;49.412;20.956;2022-09-30T18:39:16;28.55;;;26.05;;
22046;SDS011;11187;49.412;20.956;2022-09-30T18:41:49;29.85;;;26.65;;
22046;SDS011;11187;49.412;20.956;2022-09-30T18:44:39;30.23;;;27.48;;
22046;SDS011;11187;49.412;20.956;2022-09-30T18:47:12;28.58;;;26.10;;
22046;SDS011;11187;49.412;20.956;2022-09-30T18:49:58;28.90;;;26.38;;
22046;SDS011;11187;49.412;20.956;2022-09-30T18:52:54;29.23;;;26.60;;
22046;SDS011;11187;49.412;20.956;2022-09-30T18:55:35;30.17;;;27.10;;
22046;SDS011;11187;49.412;20.956;2022-09-30T18:58:30;32.30;;;29.30;;
22046;SDS011;11187;49.412;20.956;2022-09-30T19:01:03;30.20;;;27.17;;